sensor_id;sensor_type;location;lat;lon;timestamp;pressure;altitude;pressure_sealevel;temperature;humidity
3960;BME280;1994;48.640;8.894;2022-07-09T00:00:52;97292.28;;;14.99;64.45
3960;BME280;1994;48.640;8.894;2022-07-09T00:03:18;97293.38;;;15.03;64.36
3960;BME280;1994;48.640;8.894;2022-07-09T00:05:43;97293.22;;;14.93;64.94
3960;BME280;1994;48.640;8.894;2022-07-09T00:08:09;97292.28;;;14.99;64.64
3960;BME280;1994;48.640;8.894;2022-07-09T00:10:35;97297.97;;;14.96;64.58
3960;BME280;1994;48.640;8.894;2022-07-09T00:13:01;97295.03;;;14.81;64.93
3960;BME280;1994;48.640;8.894;2022-07-09T00:15:27;97287.56;;;14.84;64.79
3960;BME280;1994;48.640;8.894;2022-07-09T00:17:53;97285.94;;;14.95;65.08
3960;BME280;1994;48.640;8.894;2022-07-09T00:20:19;97282.78;;;14.93;65.12
3960;BME280;1994;48.640;8.894;2022-07-09T00:22:45;97286.94;;;14.66;65.66
3960;BME280;1994;48.640;8.894;2022-07-09T00:25:11;97279.06;;;14.38;66.36
3960;BME280;1994;48.640;8.894;2022-07-09T00:27:36;97273.03;;;14.14;67.11
3960;BME280;1994;48.640;8.894;2022-07-09T00:30:03;97275.63;;;14.03;67.87
3960;BME280;1994;48.640;8.894;2022-07-09T00:32:29;97281.50;;;14.10;67.56
3960;BME280;1994;48.640;8.894;2022-07-09T00:34:55;97266.94;;;14.20;67.76
3960;BME280;1994;48.640;8.894;2022-07-09T00:37:21;97273.16;;;14.31;67.38
3960;BME280;1994;48.640;8.894;2022-07-09T00:39:47;97265.66;;;14.46;67.20
3960;BME280;1994;48.640;8.894;2022-07-09T00:42:12;97266.56;;;14.40;66.96
3960;BME280;1994;48.640;8.894;2022-07-09T00:44:38;97262.28;;;14.34;66.85
3960;BME280;1994;48.640;8.894;2022-07-09T00:47:06;97258.19;;;14.15;67.74
3960;BME280;1994;48.640;8.894;2022-07-09T00:49:39;97255.47;;;14.10;68.15
3960;BME280;1994;48.640;8.894;2022-07-09T00:52:13;97250.25;;;14.10;67.86
3960;BME280;1994;48.640;8.894;2022-07-09T00:54:42;97248.44;;;13.99;68.26
3960;BME280;1994;48.640;8.894;2022-07-09T00:57:10;97241.88;;;13.85;68.97
3960;BME280;1994;48.640;8.894;2022-07-09T00:59:38;97239.84;;;13.87;68.99
3960;BME280;1994;48.640;8.894;2022-07-09T01:02:07;97242.13;;;13.95;68.96
3960;BME280;1994;48.640;8.894;2022-07-09T01:04:33;97241.22;;;14.01;68.50
3960;BME280;1994;48.640;8.894;2022-07-09T01:06:59;97238.72;;;14.06;68.82
3960;BME280;1994;48.640;8.894;2022-07-09T01:09:27;97242.00;;;14.13;68.44
3960;BME280;1994;48.640;8.894;2022-07-09T01:11:53;97241.75;;;14.14;68.20
3960;BME280;1994;48.640;8.894;2022-07-09T01:14:19;97233.84;;;14.09;68.29
3960;BME280;1994;48.640;8.894;2022-07-09T01:16:45;97230.78;;;14.01;68.50
3960;BME280;1994;48.640;8.894;2022-07-09T01:19:11;97233.03;;;14.09;68.24
3960;BME280;1994;48.640;8.894;2022-07-09T01:21:37;97229.88;;;14.07;68.64
3960;BME280;1994;48.640;8.894;2022-07-09T01:24:04;97230.09;;;14.17;68.08
3960;BME280;1994;48.640;8.894;2022-07-09T01:26:30;97221.03;;;14.08;67.73
3960;BME280;1994;48.640;8.894;2022-07-09T01:28:56;97221.72;;;13.92;68.28
3960;BME280;1994;48.640;8.894;2022-07-09T01:31:23;97218.78;;;14.00;68.23
3960;BME280;1994;48.640;8.894;2022-07-09T01:33:49;97219.00;;;13.87;68.82
3960;BME280;1994;48.640;8.894;2022-07-09T01:36:15;97219.56;;;13.66;69.84
3960;BME280;1994;48.640;8.894;2022-07-09T01:38:42;97221.25;;;13.72;69.77
3960;BME280;1994;48.640;8.894;2022-07-09T01:41:08;97214.81;;;13.86;69.25
3960;BME280;1994;48.640;8.894;2022-07-09T01:43:34;97213.78;;;13.87;69.07
3960;BME280;1994;48.640;8.894;2022-07-09T01:46:00;97210.28;;;13.58;69.86
3960;BME280;1994;48.640;8.894;2022-07-09T01:48:27;97211.97;;;13.53;70.01
3960;BME280;1994;48.640;8.894;2022-07-09T01:50:54;97205.19;;;13.52;70.03
3960;BME280;1994;48.640;8.894;2022-07-09T01:53:20;97205.63;;;13.49;70.37
3960;BME280;1994;48.640;8.894;2022-07-09T01:55:46;97198.16;;;13.41;70.53
3960;BME280;1994;48.640;8.894;2022-07-09T01:58:13;97202.34;;;13.42;70.26
3960;BME280;1994;48.640;8.894;2022-07-09T02:00:40;97205.28;;;13.45;70.24
3960;BME280;1994;48.640;8.894;2022-07-09T02:03:06;97198.50;;;13.44;70.24
3960;BME280;1994;48.640;8.894;2022-07-09T02:05:32;97199.31;;;13.56;70.17
3960;BME280;1994;48.640;8.894;2022-07-09T02:07:58;97197.72;;;13.67;69.65
3960;BME280;1994;48.640;8.894;2022-07-09T02:10:24;97198.41;;;13.62;69.26
3960;BME280;1994;48.640;8.894;2022-07-09T02:12:49;97197.28;;;13.70;69.61
3960;BME280;1994;48.640;8.894;2022-07-09T02:15:15;97192.28;;;13.57;69.37
3960;BME280;1994;48.640;8.894;2022-07-09T02:17:41;97190.69;;;13.56;70.03
3960;BME280;1994;48.640;8.894;2022-07-09T02:20:08;97192.72;;;13.54;69.91
3960;BME280;1994;48.640;8.894;2022-07-09T02:22:34;97192.28;;;13.57;69.79
3960;BME280;1994;48.640;8.894;2022-07-09T02:25:00;97200.19;;;13.50;69.77
3960;BME280;1994;48.640;8.894;2022-07-09T02:27:26;97189.09;;;13.32;70.24
3960;BME280;1994;48.640;8.894;2022-07-09T02:29:52;97191.56;;;13.27;70.34
3960;BME280;1994;48.640;8.894;2022-07-09T02:32:18;97190.53;;;13.28;70.59
3960;BME280;1994;48.640;8.894;2022-07-09T02:34:44;97203.81;;;13.38;70.43
3960;BME280;1994;48.640;8.894;2022-07-09T02:37:10;97200.09;;;13.45;70.15
3960;BME280;1994;48.640;8.894;2022-07-09T02:39:36;97191.25;;;13.46;70.13
3960;BME280;1994;48.640;8.894;2022-07-09T02:42:02;97193.88;;;13.58;69.74
3960;BME280;1994;48.640;8.894;2022-07-09T02:44:28;97197.69;;;13.44;69.93
3960;BME280;1994;48.640;8.894;2022-07-09T02:46:54;97198.16;;;13.41;69.90
3960;BME280;1994;48.640;8.894;2022-07-09T02:49:19;97194.19;;;13.38;70.30
3960;BME280;1994;48.640;8.894;2022-07-09T02:51:46;97197.69;;;13.44;70.04
3960;BME280;1994;48.640;8.894;2022-07-09T02:54:12;97197.03;;;13.37;70.63
3960;BME280;1994;48.640;8.894;2022-07-09T02:56:38;97199.88;;;13.47;70.13
3960;BME280;1994;48.640;8.894;2022-07-09T02:59:04;97188.44;;;13.48;70.16
3960;BME280;1994;48.640;8.894;2022-07-09T03:01:30;97192.19;;;13.52;69.62
3960;BME280;1994;48.640;8.894;2022-07-09T03:03:56;97197.25;;;13.47;69.70
3960;BME280;1994;48.640;8.894;2022-07-09T03:06:22;97194.06;;;13.45;69.82
3960;BME280;1994;48.640;8.894;2022-07-09T03:08:48;97194.53;;;13.42;69.70
3960;BME280;1994;48.640;8.894;2022-07-09T03:11:14;97185.28;;;13.46;70.83
3960;BME280;1994;48.640;8.894;2022-07-09T03:13:40;97183.34;;;13.53;71.68
3960;BME280;1994;48.640;8.894;2022-07-09T03:16:06;97186.38;;;13.50;70.54
3960;BME280;1994;48.640;8.894;2022-07-09T03:18:32;97191.16;;;13.53;70.23
3960;BME280;1994;48.640;8.894;2022-07-09T03:20:59;97188.44;;;13.48;70.41
3960;BME280;1994;48.640;8.894;2022-07-09T03:23:25;97190.47;;;13.46;70.59
3960;BME280;1994;48.640;8.894;2022-07-09T03:25:51;97198.16;;;13.41;70.10
3960;BME280;1994;48.640;8.894;2022-07-09T03:28:17;97199.59;;;13.14;70.95
3960;BME280;1994;48.640;8.894;2022-07-09T03:30:43;97199.66;;;13.07;71.77
3960;BME280;1994;48.640;8.894;2022-07-09T03:33:09;97198.56;;;13.15;71.79
3960;BME280;1994;48.640;8.894;2022-07-09T03:35:36;97191.97;;;13.01;71.44
3960;BME280;1994;48.640;8.894;2022-07-09T03:38:02;97196.25;;;13.07;71.47
3960;BME280;1994;48.640;8.894;2022-07-09T03:40:28;97192.41;;;12.98;71.71
3960;BME280;1994;48.640;8.894;2022-07-09T03:42:54;97193.00;;;12.82;72.97
3960;BME280;1994;48.640;8.894;2022-07-09T03:45:20;97197.50;;;12.75;73.21
3960;BME280;1994;48.640;8.894;2022-07-09T03:47:46;97193.00;;;12.82;73.42
3960;BME280;1994;48.640;8.894;2022-07-09T03:50:14;97191.22;;;12.94;72.99
3960;BME280;1994;48.640;8.894;2022-07-09T03:52:40;97195.28;;;12.90;72.27
3960;BME280;1994;48.640;8.894;2022-07-09T03:55:06;97192.25;;;12.93;72.38
3960;BME280;1994;48.640;8.894;2022-07-09T03:57:32;97194.00;;;12.99;72.53
3960;BME280;1994;48.640;8.894;2022-07-09T03:59:58;97194.13;;;13.04;72.26
3960;BME280;1994;48.640;8.894;2022-07-09T04:02:24;97191.63;;;12.97;72.31
3960;BME280;1994;48.640;8.894;2022-07-09T04:04:49;97186.03;;;12.94;72.62
3960;BME280;1994;48.640;8.894;2022-07-09T04:07:15;97191.09;;;12.89;72.43
3960;BME280;1994;48.640;8.894;2022-07-09T04:09:42;97194.59;;;12.83;73.12
3960;BME280;1994;48.640;8.894;2022-07-09T04:12:08;97196.72;;;12.74;73.32
3960;BME280;1994;48.640;8.894;2022-07-09T04:14:34;97195.78;;;12.69;73.91
3960;BME280;1994;48.640;8.894;2022-07-09T04:17:00;97199.38;;;12.68;74.13
3960;BME280;1994;48.640;8.894;2022-07-09T04:19:26;97203.41;;;12.82;73.91
3960;BME280;1994;48.640;8.894;2022-07-09T04:21:52;97204.09;;;12.77;74.19
3960;BME280;1994;48.640;8.894;2022-07-09T04:24:17;97208.34;;;12.72;73.96
3960;BME280;1994;48.640;8.894;2022-07-09T04:26:44;97202.25;;;12.78;74.10
3960;BME280;1994;48.640;8.894;2022-07-09T04:29:09;97204.56;;;12.86;74.00
3960;BME280;1994;48.640;8.894;2022-07-09T04:31:36;97208.38;;;13.01;73.48
3960;BME280;1994;48.640;8.894;2022-07-09T04:34:02;97204.41;;;12.99;73.70
3960;BME280;1994;48.640;8.894;2022-07-09T04:36:28;97200.16;;;13.16;73.34
3960;BME280;1994;48.640;8.894;2022-07-09T04:38:54;97200.41;;;13.26;72.88
3960;BME280;1994;48.640;8.894;2022-07-09T04:41:22;97198.94;;;13.30;72.49
3960;BME280;1994;48.640;8.894;2022-07-09T04:43:48;97205.59;;;13.26;72.67
3960;BME280;1994;48.640;8.894;2022-07-09T04:46:14;97201.88;;;13.33;72.66
3960;BME280;1994;48.640;8.894;2022-07-09T04:48:42;97209.09;;;13.31;73.03
3960;BME280;1994;48.640;8.894;2022-07-09T04:51:07;97202.56;;;13.40;72.89
3960;BME280;1994;48.640;8.894;2022-07-09T04:53:33;97214.03;;;13.51;72.55
3960;BME280;1994;48.640;8.894;2022-07-09T04:55:59;97209.94;;;13.55;72.19
3960;BME280;1994;48.640;8.894;2022-07-09T04:58:25;97210.41;;;13.52;72.72
3960;BME280;1994;48.640;8.894;2022-07-09T05:00:51;97203.16;;;13.54;72.46
3960;BME280;1994;48.640;8.894;2022-07-09T05:03:17;97200.22;;;13.62;72.39
3960;BME280;1994;48.640;8.894;2022-07-09T05:05:43;97205.09;;;13.81;71.90
3960;BME280;1994;48.640;8.894;2022-07-09T05:08:08;97208.13;;;13.78;71.74
3960;BME280;1994;48.640;8.894;2022-07-09T05:10:34;97208.59;;;13.87;71.58
3960;BME280;1994;48.640;8.894;2022-07-09T05:13:00;97205.44;;;13.85;72.00
3960;BME280;1994;48.640;8.894;2022-07-09T05:15:27;97207.69;;;13.93;71.64
3960;BME280;1994;48.640;8.894;2022-07-09T05:17:56;97199.84;;;13.93;71.32
3960;BME280;1994;48.640;8.894;2022-07-09T05:20:22;97202.03;;;13.96;71.55
3960;BME280;1994;48.640;8.894;2022-07-09T05:22:48;97207.09;;;14.02;72.00
3960;BME280;1994;48.640;8.894;2022-07-09T05:25:13;97197.69;;;14.13;71.68
3960;BME280;1994;48.640;8.894;2022-07-09T05:27:46;97204.47;;;14.14;72.42
3960;BME280;1994;48.640;8.894;2022-07-09T05:30:13;97202.69;;;14.14;73.63
3960;BME280;1994;48.640;8.894;2022-07-09T05:32:42;97201.56;;;14.22;74.15
3960;BME280;1994;48.640;8.894;2022-07-09T05:35:09;97208.56;;;14.33;73.87
3960;BME280;1994;48.640;8.894;2022-07-09T05:37:41;97211.94;;;14.45;74.42
3960;BME280;1994;48.640;8.894;2022-07-09T05:40:09;97209.44;;;14.50;74.49
3960;BME280;1994;48.640;8.894;2022-07-09T05:42:35;97214.84;;;14.60;74.98
3960;BME280;1994;48.640;8.894;2022-07-09T05:45:01;97211.22;;;14.61;74.95
3960;BME280;1994;48.640;8.894;2022-07-09T05:47:27;97209.81;;;14.70;75.41
3960;BME280;1994;48.640;8.894;2022-07-09T05:49:53;97206.84;;;14.78;75.27
3960;BME280;1994;48.640;8.894;2022-07-09T05:52:19;97216.94;;;14.74;75.61
3960;BME280;1994;48.640;8.894;2022-07-09T05:54:44;97214.88;;;14.76;75.26
3960;BME280;1994;48.640;8.894;2022-07-09T05:57:10;97213.72;;;14.84;75.11
3960;BME280;1994;48.640;8.894;2022-07-09T05:59:36;97219.97;;;14.83;74.38
3960;BME280;1994;48.640;8.894;2022-07-09T06:02:02;97222.00;;;14.81;73.58
3960;BME280;1994;48.640;8.894;2022-07-09T06:04:29;97225.66;;;14.80;73.51
3960;BME280;1994;48.640;8.894;2022-07-09T06:06:55;97217.47;;;14.88;72.16
3960;BME280;1994;48.640;8.894;2022-07-09T06:09:21;97218.41;;;14.82;73.04
3960;BME280;1994;48.640;8.894;2022-07-09T06:11:46;97211.50;;;15.04;73.06
3960;BME280;1994;48.640;8.894;2022-07-09T06:14:12;97225.28;;;15.16;71.57
3960;BME280;1994;48.640;8.894;2022-07-09T06:16:38;97218.16;;;15.28;71.16
3960;BME280;1994;48.640;8.894;2022-07-09T06:19:04;97205.84;;;15.40;71.78
3960;BME280;1994;48.640;8.894;2022-07-09T06:21:30;97208.63;;;15.66;71.51
3960;BME280;1994;48.640;8.894;2022-07-09T06:23:56;97209.34;;;15.78;70.74
3960;BME280;1994;48.640;8.894;2022-07-09T06:26:21;97210.75;;;15.86;69.81
3960;BME280;1994;48.640;8.894;2022-07-09T06:28:47;97210.41;;;15.99;69.59
3960;BME280;1994;48.640;8.894;2022-07-09T06:31:14;97208.31;;;16.17;68.72
3960;BME280;1994;48.640;8.894;2022-07-09T06:33:39;97198.88;;;16.38;68.17
3960;BME280;1994;48.640;8.894;2022-07-09T06:36:06;97210.97;;;16.60;67.45
3960;BME280;1994;48.640;8.894;2022-07-09T06:38:32;97205.41;;;16.78;66.58
3960;BME280;1994;48.640;8.894;2022-07-09T06:40:57;97207.09;;;16.89;66.46
3960;BME280;1994;48.640;8.894;2022-07-09T06:43:23;97201.25;;;17.09;66.46
3960;BME280;1994;48.640;8.894;2022-07-09T06:45:49;97200.47;;;17.35;66.24
3960;BME280;1994;48.640;8.894;2022-07-09T06:48:15;97196.75;;;17.57;64.54
3960;BME280;1994;48.640;8.894;2022-07-09T06:50:41;97196.63;;;17.79;63.89
3960;BME280;1994;48.640;8.894;2022-07-09T06:53:07;97203.31;;;17.96;62.85
3960;BME280;1994;48.640;8.894;2022-07-09T06:55:34;97205.44;;;18.04;62.80
3960;BME280;1994;48.640;8.894;2022-07-09T06:58:00;97201.69;;;18.32;62.02
3960;BME280;1994;48.640;8.894;2022-07-09T07:00:26;97205.44;;;18.51;61.25
3960;BME280;1994;48.640;8.894;2022-07-09T07:02:51;97204.41;;;18.57;60.19
3960;BME280;1994;48.640;8.894;2022-07-09T07:05:17;97198.72;;;18.80;58.71
3960;BME280;1994;48.640;8.894;2022-07-09T07:07:43;97196.66;;;18.97;58.99
3960;BME280;1994;48.640;8.894;2022-07-09T07:10:09;97194.81;;;19.07;57.78
3960;BME280;1994;48.640;8.894;2022-07-09T07:12:36;97194.63;;;19.34;57.62
3960;BME280;1994;48.640;8.894;2022-07-09T07:15:02;97195.41;;;19.44;56.00
3960;BME280;1994;48.640;8.894;2022-07-09T07:17:28;97190.41;;;19.58;55.02
3960;BME280;1994;48.640;8.894;2022-07-09T07:19:54;97189.84;;;19.81;54.44
3960;BME280;1994;48.640;8.894;2022-07-09T07:22:20;97189.28;;;20.14;54.28
3960;BME280;1994;48.640;8.894;2022-07-09T07:24:46;97193.47;;;20.25;53.58
3960;BME280;1994;48.640;8.894;2022-07-09T07:27:12;97192.94;;;20.33;53.28
3960;BME280;1994;48.640;8.894;2022-07-09T07:29:37;97190.81;;;20.35;53.89
3960;BME280;1994;48.640;8.894;2022-07-09T07:32:03;97199.69;;;20.54;52.11
3960;BME280;1994;48.640;8.894;2022-07-09T07:34:30;97193.25;;;20.75;52.14
3960;BME280;1994;48.640;8.894;2022-07-09T07:36:56;97188.22;;;20.83;51.20
3960;BME280;1994;48.640;8.894;2022-07-09T07:39:22;97184.78;;;20.88;50.39
3960;BME280;1994;48.640;8.894;2022-07-09T07:41:50;97199.00;;;20.87;49.32
3960;BME280;1994;48.640;8.894;2022-07-09T07:44:16;97193.31;;;20.70;48.69
3960;BME280;1994;48.640;8.894;2022-07-09T07:46:41;97193.50;;;20.83;48.39
3960;BME280;1994;48.640;8.894;2022-07-09T07:49:07;97198.47;;;20.90;48.94
3960;BME280;1994;48.640;8.894;2022-07-09T07:51:33;97182.56;;;21.10;49.09
3960;BME280;1994;48.640;8.894;2022-07-09T07:53:59;97188.28;;;21.17;49.17
3960;BME280;1994;48.640;8.894;2022-07-09T07:56:25;97184.06;;;21.21;48.18
3960;BME280;1994;48.640;8.894;2022-07-09T07:58:50;97188.16;;;21.37;49.31
3960;BME280;1994;48.640;8.894;2022-07-09T08:01:16;97188.00;;;21.57;48.02
3960;BME280;1994;48.640;8.894;2022-07-09T08:03:42;97182.13;;;21.65;47.52
3960;BME280;1994;48.640;8.894;2022-07-09T08:06:08;97180.38;;;21.84;47.49
3960;BME280;1994;48.640;8.894;2022-07-09T08:08:34;97184.84;;;21.88;48.27
3960;BME280;1994;48.640;8.894;2022-07-09T08:11:00;97194.28;;;21.94;47.19
3960;BME280;1994;48.640;8.894;2022-07-09T08:13:27;97181.75;;;22.05;47.32
3960;BME280;1994;48.640;8.894;2022-07-09T08:15:55;97193.94;;;22.01;47.29
3960;BME280;1994;48.640;8.894;2022-07-09T08:18:20;97185.84;;;22.16;47.92
3960;BME280;1994;48.640;8.894;2022-07-09T08:20:46;97188.91;;;22.28;47.55
3960;BME280;1994;48.640;8.894;2022-07-09T08:23:15;97189.28;;;22.45;47.40
3960;BME280;1994;48.640;8.894;2022-07-09T08:25:41;97188.13;;;22.51;46.63
3960;BME280;1994;48.640;8.894;2022-07-09T08:28:07;97178.38;;;22.88;46.44
3960;BME280;1994;48.640;8.894;2022-07-09T08:30:32;97180.03;;;23.03;46.08
3960;BME280;1994;48.640;8.894;2022-07-09T08:32:58;97176.97;;;23.33;45.00
3960;BME280;1994;48.640;8.894;2022-07-09T08:35:24;97171.53;;;23.75;46.19
3960;BME280;1994;48.640;8.894;2022-07-09T08:37:52;97168.25;;;24.10;43.18
3960;BME280;1994;48.640;8.894;2022-07-09T08:40:18;97165.72;;;24.32;43.06
3960;BME280;1994;48.640;8.894;2022-07-09T08:42:44;97164.72;;;24.28;42.75
3960;BME280;1994;48.640;8.894;2022-07-09T08:45:14;97174.31;;;24.51;43.57
3960;BME280;1994;48.640;8.894;2022-07-09T08:47:42;97169.44;;;24.04;43.64
3960;BME280;1994;48.640;8.894;2022-07-09T08:50:08;97161.06;;;24.51;43.81
3960;BME280;1994;48.640;8.894;2022-07-09T08:52:36;97164.88;;;24.85;41.46
3960;BME280;1994;48.640;8.894;2022-07-09T08:55:03;97167.44;;;24.77;42.40
3960;BME280;1994;48.640;8.894;2022-07-09T08:57:29;97166.38;;;24.51;42.08
3960;BME280;1994;48.640;8.894;2022-07-09T08:59:55;97162.13;;;24.77;42.56
3960;BME280;1994;48.640;8.894;2022-07-09T09:02:21;97148.19;;;24.85;41.74
3960;BME280;1994;48.640;8.894;2022-07-09T09:04:47;97147.34;;;24.98;42.80
3960;BME280;1994;48.640;8.894;2022-07-09T09:07:17;97148.34;;;25.02;41.48
3960;BME280;1994;48.640;8.894;2022-07-09T09:09:44;97140.94;;;24.77;41.23
3960;BME280;1994;48.640;8.894;2022-07-09T09:12:12;97139.13;;;24.64;43.08
3960;BME280;1994;48.640;8.894;2022-07-09T09:14:39;97136.94;;;24.39;43.90
3960;BME280;1994;48.640;8.894;2022-07-09T09:17:07;97136.16;;;24.52;43.80
3960;BME280;1994;48.640;8.894;2022-07-09T09:19:35;97136.47;;;24.10;44.04
3960;BME280;1994;48.640;8.894;2022-07-09T09:22:01;97135.00;;;24.31;43.47
3960;BME280;1994;48.640;8.894;2022-07-09T09:24:27;97133.00;;;24.50;43.57
3960;BME280;1994;48.640;8.894;2022-07-09T09:27:00;97127.06;;;24.44;43.83
3960;BME280;1994;48.640;8.894;2022-07-09T09:29:27;97131.69;;;24.88;42.61
3960;BME280;1994;48.640;8.894;2022-07-09T09:31:54;97132.56;;;25.41;42.06
3960;BME280;1994;48.640;8.894;2022-07-09T09:34:21;97135.22;;;25.41;41.96
3960;BME280;1994;48.640;8.894;2022-07-09T09:36:51;97135.28;;;25.27;41.72
3960;BME280;1994;48.640;8.894;2022-07-09T09:39:25;97124.72;;;25.58;41.40
3960;BME280;1994;48.640;8.894;2022-07-09T09:41:55;97122.78;;;25.72;40.41
3960;BME280;1994;48.640;8.894;2022-07-09T09:44:40;97122.22;;;25.31;40.68
3960;BME280;1994;48.640;8.894;2022-07-09T09:47:09;97113.75;;;25.51;40.53
3960;BME280;1994;48.640;8.894;2022-07-09T09:49:38;97120.56;;;25.96;40.46
3960;BME280;1994;48.640;8.894;2022-07-09T09:52:10;97128.81;;;25.94;38.87
3960;BME280;1994;48.640;8.894;2022-07-09T09:54:39;97125.41;;;25.72;39.58
3960;BME280;1994;48.640;8.894;2022-07-09T09:57:09;97110.88;;;25.39;41.13
3960;BME280;1994;48.640;8.894;2022-07-09T09:59:41;97123.03;;;24.96;40.74
3960;BME280;1994;48.640;8.894;2022-07-09T10:02:09;97118.75;;;24.86;41.89
3960;BME280;1994;48.640;8.894;2022-07-09T10:04:41;97111.50;;;25.22;41.55
3960;BME280;1994;48.640;8.894;2022-07-09T10:07:11;97108.75;;;25.49;40.25
3960;BME280;1994;48.640;8.894;2022-07-09T10:09:37;97110.56;;;25.93;40.06
3960;BME280;1994;48.640;8.894;2022-07-09T10:12:04;97112.22;;;26.28;38.89
3960;BME280;1994;48.640;8.894;2022-07-09T10:14:33;97108.63;;;26.32;38.41
3960;BME280;1994;48.640;8.894;2022-07-09T10:17:15;97098.41;;;26.09;38.72
3960;BME280;1994;48.640;8.894;2022-07-09T10:20:05;97094.78;;;25.66;38.85
3960;BME280;1994;48.640;8.894;2022-07-09T10:25:10;97091.66;;;25.64;39.87
3960;BME280;1994;48.640;8.894;2022-07-09T10:27:47;97092.50;;;26.12;40.37
3960;BME280;1994;48.640;8.894;2022-07-09T10:30:32;97083.69;;;26.03;38.99
3960;BME280;1994;48.640;8.894;2022-07-09T10:33:05;97084.59;;;25.90;40.10
3960;BME280;1994;48.640;8.894;2022-07-09T10:35:57;97083.66;;;25.55;39.17
3960;BME280;1994;48.640;8.894;2022-07-09T10:38:35;97090.00;;;25.46;39.42
3960;BME280;1994;48.640;8.894;2022-07-09T10:41:02;97080.25;;;25.33;39.53
3960;BME280;1994;48.640;8.894;2022-07-09T10:43:50;97085.41;;;25.16;39.98
3960;BME280;1994;48.640;8.894;2022-07-09T10:46:16;97081.75;;;25.47;39.49
3960;BME280;1994;48.640;8.894;2022-07-09T10:48:44;97080.03;;;25.82;38.65
3960;BME280;1994;48.640;8.894;2022-07-09T10:51:23;97084.25;;;25.83;38.41
3960;BME280;1994;48.640;8.894;2022-07-09T10:53:49;97085.91;;;26.01;38.55
3960;BME280;1994;48.640;8.894;2022-07-09T10:56:22;97082.44;;;26.56;36.32
3960;BME280;1994;48.640;8.894;2022-07-09T10:58:49;97079.41;;;26.41;38.34
3960;BME280;1994;48.640;8.894;2022-07-09T11:01:23;97080.59;;;26.01;37.72
3960;BME280;1994;48.640;8.894;2022-07-09T11:03:52;97075.06;;;25.89;38.28
3960;BME280;1994;48.640;8.894;2022-07-09T11:06:19;97075.72;;;25.94;38.74
3960;BME280;1994;48.640;8.894;2022-07-09T11:08:45;97072.41;;;25.89;38.58
3960;BME280;1994;48.640;8.894;2022-07-09T11:11:11;97076.50;;;25.95;39.32
3960;BME280;1994;48.640;8.894;2022-07-09T11:13:37;97073.72;;;26.00;39.21
3960;BME280;1994;48.640;8.894;2022-07-09T11:16:03;97076.09;;;26.10;39.77
3960;BME280;1994;48.640;8.894;2022-07-09T11:18:30;97077.78;;;26.06;38.71
3960;BME280;1994;48.640;8.894;2022-07-09T11:20:56;97073.00;;;25.86;38.92
3960;BME280;1994;48.640;8.894;2022-07-09T11:23:22;97072.63;;;25.70;39.81
3960;BME280;1994;48.640;8.894;2022-07-09T11:25:48;97067.38;;;25.79;39.58
3960;BME280;1994;48.640;8.894;2022-07-09T11:28:24;97063.88;;;25.70;40.05
3960;BME280;1994;48.640;8.894;2022-07-09T11:31:02;97069.25;;;25.48;40.03
3960;BME280;1994;48.640;8.894;2022-07-09T11:33:30;97070.97;;;25.44;39.92
3960;BME280;1994;48.640;8.894;2022-07-09T11:36:19;97072.72;;;25.57;40.15
3960;BME280;1994;48.640;8.894;2022-07-09T11:38:52;97070.34;;;25.47;40.14
3960;BME280;1994;48.640;8.894;2022-07-09T11:41:19;97069.13;;;25.53;40.03
3960;BME280;1994;48.640;8.894;2022-07-09T11:43:50;97068.13;;;25.71;39.98
3960;BME280;1994;48.640;8.894;2022-07-09T11:46:20;97062.94;;;25.66;40.53
3960;BME280;1994;48.640;8.894;2022-07-09T11:48:54;97069.63;;;25.55;40.42
3960;BME280;1994;48.640;8.894;2022-07-09T11:51:33;97061.38;;;25.65;40.39
3960;BME280;1994;48.640;8.894;2022-07-09T11:54:03;97054.66;;;25.67;40.69
3960;BME280;1994;48.640;8.894;2022-07-09T11:56:45;97055.72;;;25.58;39.42
3960;BME280;1994;48.640;8.894;2022-07-09T11:59:13;97043.81;;;25.47;40.64
3960;BME280;1994;48.640;8.894;2022-07-09T12:01:50;97055.22;;;25.86;40.33
3960;BME280;1994;48.640;8.894;2022-07-09T12:04:19;97050.03;;;25.81;40.49
3960;BME280;1994;48.640;8.894;2022-07-09T12:06:50;97044.97;;;26.02;39.87
3960;BME280;1994;48.640;8.894;2022-07-09T12:09:35;97045.34;;;26.26;40.24
3960;BME280;1994;48.640;8.894;2022-07-09T12:12:01;97043.84;;;26.59;39.32
3960;BME280;1994;48.640;8.894;2022-07-09T12:14:27;97036.63;;;27.02;37.65
3960;BME280;1994;48.640;8.894;2022-07-09T12:16:53;97031.19;;;27.53;35.49
3960;BME280;1994;48.640;8.894;2022-07-09T12:19:19;97034.28;;;27.55;34.94
3960;BME280;1994;48.640;8.894;2022-07-09T12:21:45;97021.81;;;27.47;35.42
3960;BME280;1994;48.640;8.894;2022-07-09T12:24:10;97018.88;;;27.40;35.45
3960;BME280;1994;48.640;8.894;2022-07-09T12:26:37;97025.19;;;27.56;35.40
3960;BME280;1994;48.640;8.894;2022-07-09T12:29:03;97014.94;;;27.46;35.61
3960;BME280;1994;48.640;8.894;2022-07-09T12:31:29;97010.88;;;27.40;36.59
3960;BME280;1994;48.640;8.894;2022-07-09T12:33:54;97009.41;;;27.59;36.16
3960;BME280;1994;48.640;8.894;2022-07-09T12:36:21;97005.56;;;27.40;36.28
3960;BME280;1994;48.640;8.894;2022-07-09T12:38:47;97003.66;;;27.78;36.27
3960;BME280;1994;48.640;8.894;2022-07-09T12:41:12;97000.44;;;28.22;34.71
3960;BME280;1994;48.640;8.894;2022-07-09T12:43:38;97004.72;;;28.35;35.31
3960;BME280;1994;48.640;8.894;2022-07-09T12:46:04;97009.81;;;28.28;35.32
3960;BME280;1994;48.640;8.894;2022-07-09T12:48:30;96995.97;;;27.85;36.21
3960;BME280;1994;48.640;8.894;2022-07-09T12:50:56;96997.03;;;27.55;36.03
3960;BME280;1994;48.640;8.894;2022-07-09T12:53:21;96990.91;;;27.92;34.77
3960;BME280;1994;48.640;8.894;2022-07-09T12:55:47;96989.41;;;28.52;34.68
3960;BME280;1994;48.640;8.894;2022-07-09T12:58:13;96986.91;;;28.68;34.01
3960;BME280;1994;48.640;8.894;2022-07-09T13:00:39;96987.19;;;28.54;33.88
3960;BME280;1994;48.640;8.894;2022-07-09T13:03:05;96988.16;;;29.03;33.58
3960;BME280;1994;48.640;8.894;2022-07-09T13:05:31;96982.38;;;28.48;33.13
3960;BME280;1994;48.640;8.894;2022-07-09T13:07:57;96990.31;;;28.56;33.88
3960;BME280;1994;48.640;8.894;2022-07-09T13:10:23;96984.66;;;28.17;33.75
3960;BME280;1994;48.640;8.894;2022-07-09T13:12:49;96981.50;;;28.44;34.31
3960;BME280;1994;48.640;8.894;2022-07-09T13:15:15;96982.38;;;28.48;33.92
3960;BME280;1994;48.640;8.894;2022-07-09T13:17:47;96980.88;;;28.18;34.32
3960;BME280;1994;48.640;8.894;2022-07-09T13:20:13;96986.69;;;27.91;34.21
3960;BME280;1994;48.640;8.894;2022-07-09T13:22:39;96985.34;;;28.05;34.75
3960;BME280;1994;48.640;8.894;2022-07-09T13:25:06;96971.47;;;28.20;35.15